Ferry Katsuragi — JI3611 — position and weather

sailwx.info

Track history (hours):
 
Tides and Currents Weather Stations Pressure Air Temp Water Temp Dewpoint Dewpoint Depression Visibility Wind Speed Wind Dir Waves Ship Positions

Ferry Katsuragi

Last reported at 2015-Jan-25 11:32 UTC. Time now 2015-Jan-25 14:19 UTC.
Position N 34°07' E 134°47'.

Length 108 m; draft 4 m.

Type: Passenger vessel. MMSI: 431301245.

Date/timePositionNaut miles runAvg speedWind from/ knotsBaromVisibWave heightAir tempDewpointWater temp
2015-Jan-25 11:32N 34°07' E 134°47'1515.5
2015-Jan-25 10:33N 34°12' E 135°04'4 3.9
2015-Jan-25 09:33N 34°13' E 135°09'20 5.7
2015-Jan-25 06:07N 34°06' E 134°46'1013.5
2015-Jan-25 05:23N 34°10' E 134°58'1011.7
2015-Jan-25 04:33N 34°13' E 135°09'7 7.3
2015-Jan-25 03:33N 34°09' E 135°01'9 2.9
2015-Jan-25 00:33N 34°08' E 134°50'1515.3
2015-Jan-24 23:33N 34°13' E 135°08'2 2.0
2015-Jan-24 22:34N 34°13' E 135°06'10 2.5
2015-Jan-24 18:33N 34°07' E 134°55'1212.6
2015-Jan-24 17:33N 34°13' E 135°09'0 0.0
2015-Jan-24 16:33N 34°13' E 135°09'0 0.0
2015-Jan-24 15:33N 34°13' E 135°09'6 6.3
2015-Jan-24 14:33N 34°12' E 135°01'11 3.5
2015-Jan-24 11:23N 34°07' E 134°49'1315.9
2015-Jan-24 10:34N 34°12' E 135°04'4 4.3
2015-Jan-24 09:34N 34°13' E 135°09'20 5.7
2015-Jan-24 06:06N 34°06' E 134°46'814.4
2015-Jan-24 05:33N 34°09' E 134°55'1212.1
2015-Jan-24 04:33N 34°13' E 135°09'6 6.3
2015-Jan-24 03:33N 34°12' E 135°01'5 1.7
2015-Jan-24 00:18N 34°09' E 134°55'1114.6
2015-Jan-23 23:33N 34°13' E 135°08'3 2.9
2015-Jan-23 22:33N 34°12' E 135°04'17 5.1
2015-Jan-23 19:12N 34°06' E 134°45'913.3
2015-Jan-23 18:32N 34°09' E 134°56'1111.9
2015-Jan-23 17:33N 34°13' E 135°09'0 0.0
2015-Jan-23 16:33N 34°13' E 135°09'0 0.0
2015-Jan-23 15:33N 34°13' E 135°09'7 7.2
2015-Jan-23 14:33N 34°11' E 135°00'11 3.5
2015-Jan-23 11:30N 34°07' E 134°48'1414.7
2015-Jan-23 10:33N 34°12' E 135°04'4 3.7
2015-Jan-23 09:34N 34°13' E 135°08'21 6.2
2015-Jan-23 06:12N 34°05' E 134°45'914.2
2015-Jan-23 05:33N 34°08' E 134°55'1212.1
2015-Jan-23 04:33N 34°13' E 135°09'7 6.8
2015-Jan-23 03:33N 34°11' E 135°01'4 1.2
2015-Jan-23 00:14N 34°09' E 134°56'1015.2
2015-Jan-22 23:34N 34°13' E 135°08'1 1.4
2015-Jan-22 22:33N 34°13' E 135°06'19 5.9
2015-Jan-22 19:15N 34°05' E 134°45'913.1
2015-Jan-22 18:33N 34°09' E 134°55'1212.0
2015-Jan-22 17:33N 34°13' E 135°09'0 0.0
2015-Jan-22 16:33N 34°13' E 135°09'0 0.0
2015-Jan-22 15:33N 34°13' E 135°09'7 7.0
2015-Jan-22 14:33N 34°11' E 135°00'10 3.2
2015-Jan-22 11:28N 34°07' E 134°49'1414.9
2015-Jan-22 10:33N 34°13' E 135°04'3 3.2
2015-Jan-22 09:33N 34°13' E 135°08'11 2.8
2015-Jan-22 05:32N 34°09' E 134°56'1212.0
2015-Jan-22 04:33N 34°13' E 135°09'6 6.3
2015-Jan-22 03:33N 34°11' E 135°01'7 2.4
2015-Jan-22 00:28N 34°09' E 134°53'1314.7
2015-Jan-21 23:33N 34°13' E 135°08'0 0.3
2015-Jan-21 22:50N 34°13' E 135°09'0 0.9
2015-Jan-21 22:46N 34°13' E 135°09'210.8
2015-Jan-21 22:33N 34°13' E 135°06'19 5.7
2015-Jan-21 19:14N 34°05' E 134°45'1114.0
2015-Jan-21 18:28N 34°09' E 134°57'1111.7
2015-Jan-21 17:33N 34°13' E 135°09'0 0.0
2015-Jan-21 16:33N 34°13' E 135°09'0 0.0
2015-Jan-21 15:33N 34°13' E 135°09'17 4.2
2015-Jan-21 11:30N 34°07' E 134°49'1314.1
2015-Jan-21 10:33N 34°12' E 135°04'4 3.8
2015-Jan-21 09:33N 34°13' E 135°08'20 5.8
2015-Jan-21 06:11N 34°06' E 134°46'813.5
2015-Jan-21 05:33N 34°09' E 134°56'1111.5
2015-Jan-21 04:33N 34°13' E 135°09'7 6.7
2015-Jan-21 03:33N 34°11' E 135°01'6 1.7
2015-Jan-21 00:20N 34°10' E 134°54'1215.1
2015-Jan-20 23:33N 34°13' E 135°08'2 1.6
2015-Jan-20 22:34N 34°13' E 135°06'20 5.9
2015-Jan-20 19:15N 34°04' E 134°45'1013.7
2015-Jan-20 18:34N 34°08' E 134°55'1212.1
2015-Jan-20 17:33N 34°13' E 135°09'0 0.0
2015-Jan-20 16:33N 34°13' E 135°09'0 0.0
2015-Jan-20 15:33N 34°13' E 135°09'7 6.9
2015-Jan-20 14:33N 34°11' E 135°01'11 3.4
2015-Jan-20 11:30N 34°07' E 134°49'1314.3
2015-Jan-20 10:33N 34°12' E 135°04'4 3.8
2015-Jan-20 09:33N 34°13' E 135°08'9 2.3
2015-Jan-20 05:24N 34°11' E 134°57'1011.6
2015-Jan-20 04:34N 34°13' E 135°09'7 7.1
2015-Jan-20 03:33N 34°09' E 135°01'5 1.4
2015-Jan-20 00:17N 34°09' E 134°55'1115.2
2015-Jan-19 23:34N 34°13' E 135°08'2 2.0
2015-Jan-19 22:33N 34°13' E 135°06'10 2.4
2015-Jan-19 18:32N 34°08' E 134°56'1212.1
2015-Jan-19 17:33N 34°13' E 135°09'0 0.0
2015-Jan-19 16:33N 34°13' E 135°09'0 0.0
2015-Jan-19 15:34N 34°13' E 135°09'6 6.1
2015-Jan-19 14:34N 34°11' E 135°02'11 3.5
2015-Jan-19 11:26N 34°07' E 134°49'1315.0
2015-Jan-19 10:34N 34°12' E 135°04'4 3.8
2015-Jan-19 09:34N 34°13' E 135°09'19 5.3
2015-Jan-19 06:04N 34°06' E 134°48'914.7
2015-Jan-19 05:26N 34°11' E 134°57'1011.1
2015-Jan-19 04:33N 34°13' E 135°09'7 6.5
2015-Jan-19 03:33N 34°10' E 135°01'6 2.0
2015-Jan-19 00:26N 34°08' E 134°55'1213.9
2015-Jan-18 23:33N 34°13' E 135°08'1 1.4
2015-Jan-18 22:33N 34°13' E 135°06'19 5.5
2015-Jan-18 19:13N 34°06' E 134°45'913.2
2015-Jan-18 18:32N 34°09' E 134°55'1211.8
2015-Jan-18 17:33N 34°13' E 135°09'0 0.0
2015-Jan-18 16:33N 34°13' E 135°09'0 0.0
2015-Jan-18 15:33N 34°13' E 135°09'7 7.3
2015-Jan-18 14:33N 34°10' E 135°00'6 1.6
2015-Jan-18 11:07N 34°08' E 134°54'915.7
2015-Jan-18 10:33N 34°12' E 135°04'4 4.2
2015-Jan-18 09:33N 34°13' E 135°09'20 5.7
2015-Jan-18 06:07N 34°06' E 134°46'813.6
2015-Jan-18 05:30N 34°09' E 134°56'1112.0
2015-Jan-18 04:33N 34°13' E 135°09'6 6.3
2015-Jan-18 03:33N 34°11' E 135°01'6 2.0
2015-Jan-18 00:23N 34°09' E 134°54'1214.6
2015-Jan-17 23:34N 34°13' E 135°08'2 1.7
2015-Jan-17 22:33N 34°13' E 135°06'18 5.3
2015-Jan-17 19:10N 34°06' E 134°46'1113.7
2015-Jan-17 18:20N 34°10' E 134°58'911.4
2015-Jan-17 17:33N 34°13' E 135°09'0 0.0
2015-Jan-17 16:33N 34°13' E 135°09'0 0.0
2015-Jan-17 15:33N 34°13' E 135°09'7 6.9
2015-Jan-17 14:33N 34°11' E 135°01'3 0.7
2015-Jan-17 10:33N 34°12' E 135°04'4 4.0
2015-Jan-17 09:33N 34°13' E 135°09'21 6.2
2015-Jan-17 06:10N 34°05' E 134°45'1014.4
2015-Jan-17 05:28N 34°09' E 134°56'1112.1
2015-Jan-17 04:33N 34°13' E 135°09'6 6.4
2015-Jan-17 03:33N 34°11' E 135°01'4 1.3
2015-Jan-17 00:16N 34°09' E 134°57'1014.2
2015-Jan-16 23:34N 34°13' E 135°08'3 2.5
2015-Jan-16 22:33N 34°12' E 135°05'1713.8
2015-Jan-16 21:21N 34°06' E 134°46'0 0.1
2015-Jan-16 19:11N 34°06' E 134°46'913.4
2015-Jan-16 18:31N 34°09' E 134°56'1111.6
2015-Jan-16 17:33N 34°13' E 135°09'0 0.0
2015-Jan-16 16:34N 34°13' E 135°09'0 0.0
2015-Jan-16 15:33N 34°13' E 135°09'7 6.8
2015-Jan-16 14:33N 34°11' E 135°01'8 2.6
2015-Jan-16 11:22N 34°08' E 134°51'1214.4
2015-Jan-16 10:33N 34°12' E 135°04'3 3.1
2015-Jan-16 09:34N 34°13' E 135°08'20 6.0
2015-Jan-16 06:14N 34°06' E 134°45'1113.6
2015-Jan-16 05:28N 34°10' E 134°57'1011.0
2015-Jan-16 04:33N 34°13' E 135°09'7 6.6
2015-Jan-16 03:33N 34°11' E 135°01'4 1.3
2015-Jan-16 00:14N 34°11' E 134°56'1015.0
2015-Jan-15 23:34N 34°13' E 135°08'2 2.0
2015-Jan-15 22:33N 34°13' E 135°05'20 6.2
2015-Jan-15 19:21N 34°05' E 134°43'1213.6
2015-Jan-15 18:26N 34°10' E 134°57'1011.5
2015-Jan-15 17:33N 34°13' E 135°09'0 0.0
2015-Jan-15 16:34N 34°13' E 135°09'0 0.0
2015-Jan-15 15:33N 34°13' E 135°09'7 7.4
2015-Jan-15 14:33N 34°10' E 135°00'  
Track history (hours):
 
Tides and Currents Weather Stations Pressure Air Temp Water Temp Dewpoint Dewpoint Depression Visibility Wind Speed Wind Dir Waves Ship Positions

Ferry Katsuragi

Last reported at 2015-Jan-25 11:32 UTC. Time now 2015-Jan-25 14:19 UTC.
Position N 34°07' E 134°47'.

Length 108 m; draft 4 m.

Type: Passenger vessel. MMSI: 431301245.

Date/timePositionNaut miles runAvg speedWind from/ knotsBaromVisibWave heightAir tempDewpointWater temp
2015-Jan-25 11:32N 34°07' E 134°47'1515.5
2015-Jan-25 10:33N 34°12' E 135°04'4 3.9
2015-Jan-25 09:33N 34°13' E 135°09'20 5.7
2015-Jan-25 06:07N 34°06' E 134°46'1013.5
2015-Jan-25 05:23N 34°10' E 134°58'1011.7
2015-Jan-25 04:33N 34°13' E 135°09'7 7.3
2015-Jan-25 03:33N 34°09' E 135°01'9 2.9
2015-Jan-25 00:33N 34°08' E 134°50'1515.3
2015-Jan-24 23:33N 34°13' E 135°08'2 2.0
2015-Jan-24 22:34N 34°13' E 135°06'10 2.5
2015-Jan-24 18:33N 34°07' E 134°55'1212.6
2015-Jan-24 17:33N 34°13' E 135°09'0 0.0
2015-Jan-24 16:33N 34°13' E 135°09'0 0.0
2015-Jan-24 15:33N 34°13' E 135°09'6 6.3
2015-Jan-24 14:33N 34°12' E 135°01'11 3.5
2015-Jan-24 11:23N 34°07' E 134°49'1315.9
2015-Jan-24 10:34N 34°12' E 135°04'4 4.3
2015-Jan-24 09:34N 34°13' E 135°09'20 5.7
2015-Jan-24 06:06N 34°06' E 134°46'814.4
2015-Jan-24 05:33N 34°09' E 134°55'1212.1
2015-Jan-24 04:33N 34°13' E 135°09'6 6.3
2015-Jan-24 03:33N 34°12' E 135°01'5 1.7
2015-Jan-24 00:18N 34°09' E 134°55'1114.6
2015-Jan-23 23:33N 34°13' E 135°08'3 2.9
2015-Jan-23 22:33N 34°12' E 135°04'17 5.1
2015-Jan-23 19:12N 34°06' E 134°45'913.3
2015-Jan-23 18:32N 34°09' E 134°56'1111.9
2015-Jan-23 17:33N 34°13' E 135°09'0 0.0
2015-Jan-23 16:33N 34°13' E 135°09'0 0.0
2015-Jan-23 15:33N 34°13' E 135°09'7 7.2
2015-Jan-23 14:33N 34°11' E 135°00'11 3.5
2015-Jan-23 11:30N 34°07' E 134°48'1414.7
2015-Jan-23 10:33N 34°12' E 135°04'4 3.7
2015-Jan-23 09:34N 34°13' E 135°08'21 6.2
2015-Jan-23 06:12N 34°05' E 134°45'914.2
2015-Jan-23 05:33N 34°08' E 134°55'1212.1
2015-Jan-23 04:33N 34°13' E 135°09'7 6.8
2015-Jan-23 03:33N 34°11' E 135°01'4 1.2
2015-Jan-23 00:14N 34°09' E 134°56'1015.2
2015-Jan-22 23:34N 34°13' E 135°08'1 1.4
2015-Jan-22 22:33N 34°13' E 135°06'19 5.9
2015-Jan-22 19:15N 34°05' E 134°45'913.1
2015-Jan-22 18:33N 34°09' E 134°55'1212.0
2015-Jan-22 17:33N 34°13' E 135°09'0 0.0
2015-Jan-22 16:33N 34°13' E 135°09'0 0.0
2015-Jan-22 15:33N 34°13' E 135°09'7 7.0
2015-Jan-22 14:33N 34°11' E 135°00'10 3.2
2015-Jan-22 11:28N 34°07' E 134°49'1414.9
2015-Jan-22 10:33N 34°13' E 135°04'3 3.2
2015-Jan-22 09:33N 34°13' E 135°08'11 2.8
2015-Jan-22 05:32N 34°09' E 134°56'1212.0
2015-Jan-22 04:33N 34°13' E 135°09'6 6.3
2015-Jan-22 03:33N 34°11' E 135°01'7 2.4
2015-Jan-22 00:28N 34°09' E 134°53'1314.7
2015-Jan-21 23:33N 34°13' E 135°08'0 0.3
2015-Jan-21 22:50N 34°13' E 135°09'0 0.9
2015-Jan-21 22:46N 34°13' E 135°09'210.8
2015-Jan-21 22:33N 34°13' E 135°06'19 5.7
2015-Jan-21 19:14N 34°05' E 134°45'1114.0
2015-Jan-21 18:28N 34°09' E 134°57'1111.7
2015-Jan-21 17:33N 34°13' E 135°09'0 0.0
2015-Jan-21 16:33N 34°13' E 135°09'0 0.0
2015-Jan-21 15:33N 34°13' E 135°09'17 4.2
2015-Jan-21 11:30N 34°07' E 134°49'1314.1
2015-Jan-21 10:33N 34°12' E 135°04'4 3.8
2015-Jan-21 09:33N 34°13' E 135°08'20 5.8
2015-Jan-21 06:11N 34°06' E 134°46'813.5
2015-Jan-21 05:33N 34°09' E 134°56'1111.5
2015-Jan-21 04:33N 34°13' E 135°09'7 6.7
2015-Jan-21 03:33N 34°11' E 135°01'6 1.7
2015-Jan-21 00:20N 34°10' E 134°54'1215.1
2015-Jan-20 23:33N 34°13' E 135°08'2 1.6
2015-Jan-20 22:34N 34°13' E 135°06'20 5.9
2015-Jan-20 19:15N 34°04' E 134°45'1013.7
2015-Jan-20 18:34N 34°08' E 134°55'1212.1
2015-Jan-20 17:33N 34°13' E 135°09'0 0.0
2015-Jan-20 16:33N 34°13' E 135°09'0 0.0
2015-Jan-20 15:33N 34°13' E 135°09'7 6.9
2015-Jan-20 14:33N 34°11' E 135°01'11 3.4
2015-Jan-20 11:30N 34°07' E 134°49'1314.3
2015-Jan-20 10:33N 34°12' E 135°04'4 3.8
2015-Jan-20 09:33N 34°13' E 135°08'9 2.3
2015-Jan-20 05:24N 34°11' E 134°57'1011.6
2015-Jan-20 04:34N 34°13' E 135°09'7 7.1
2015-Jan-20 03:33N 34°09' E 135°01'5 1.4
2015-Jan-20 00:17N 34°09' E 134°55'1115.2
2015-Jan-19 23:34N 34°13' E 135°08'2 2.0
2015-Jan-19 22:33N 34°13' E 135°06'10 2.4
2015-Jan-19 18:32N 34°08' E 134°56'1212.1
2015-Jan-19 17:33N 34°13' E 135°09'0 0.0
2015-Jan-19 16:33N 34°13' E 135°09'0 0.0
2015-Jan-19 15:34N 34°13' E 135°09'6 6.1
2015-Jan-19 14:34N 34°11' E 135°02'11 3.5
2015-Jan-19 11:26N 34°07' E 134°49'1315.0
2015-Jan-19 10:34N 34°12' E 135°04'4 3.8
2015-Jan-19 09:34N 34°13' E 135°09'19 5.3
2015-Jan-19 06:04N 34°06' E 134°48'914.7
2015-Jan-19 05:26N 34°11' E 134°57'1011.1
2015-Jan-19 04:33N 34°13' E 135°09'7 6.5
2015-Jan-19 03:33N 34°10' E 135°01'6 2.0
2015-Jan-19 00:26N 34°08' E 134°55'1213.9
2015-Jan-18 23:33N 34°13' E 135°08'1 1.4
2015-Jan-18 22:33N 34°13' E 135°06'19 5.5
2015-Jan-18 19:13N 34°06' E 134°45'913.2
2015-Jan-18 18:32N 34°09' E 134°55'1211.8
2015-Jan-18 17:33N 34°13' E 135°09'0 0.0
2015-Jan-18 16:33N 34°13' E 135°09'0 0.0
2015-Jan-18 15:33N 34°13' E 135°09'7 7.3
2015-Jan-18 14:33N 34°10' E 135°00'6 1.6
2015-Jan-18 11:07N 34°08' E 134°54'915.7
2015-Jan-18 10:33N 34°12' E 135°04'4 4.2
2015-Jan-18 09:33N 34°13' E 135°09'20 5.7
2015-Jan-18 06:07N 34°06' E 134°46'813.6
2015-Jan-18 05:30N 34°09' E 134°56'1112.0
2015-Jan-18 04:33N 34°13' E 135°09'6 6.3
2015-Jan-18 03:33N 34°11' E 135°01'6 2.0
2015-Jan-18 00:23N 34°09' E 134°54'1214.6
2015-Jan-17 23:34N 34°13' E 135°08'2 1.7
2015-Jan-17 22:33N 34°13' E 135°06'18 5.3
2015-Jan-17 19:10N 34°06' E 134°46'1113.7
2015-Jan-17 18:20N 34°10' E 134°58'911.4
2015-Jan-17 17:33N 34°13' E 135°09'0 0.0
2015-Jan-17 16:33N 34°13' E 135°09'0 0.0
2015-Jan-17 15:33N 34°13' E 135°09'7 6.9
2015-Jan-17 14:33N 34°11' E 135°01'3 0.7
2015-Jan-17 10:33N 34°12' E 135°04'4 4.0
2015-Jan-17 09:33N 34°13' E 135°09'21 6.2
2015-Jan-17 06:10N 34°05' E 134°45'1014.4
2015-Jan-17 05:28N 34°09' E 134°56'1112.1
2015-Jan-17 04:33N 34°13' E 135°09'6 6.4
2015-Jan-17 03:33N 34°11' E 135°01'4 1.3
2015-Jan-17 00:16N 34°09' E 134°57'1014.2
2015-Jan-16 23:34N 34°13' E 135°08'3 2.5
2015-Jan-16 22:33N 34°12' E 135°05'1713.8
2015-Jan-16 21:21N 34°06' E 134°46'0 0.1
2015-Jan-16 19:11N 34°06' E 134°46'913.4
2015-Jan-16 18:31N 34°09' E 134°56'1111.6
2015-Jan-16 17:33N 34°13' E 135°09'0 0.0
2015-Jan-16 16:34N 34°13' E 135°09'0 0.0
2015-Jan-16 15:33N 34°13' E 135°09'7 6.8
2015-Jan-16 14:33N 34°11' E 135°01'8 2.6
2015-Jan-16 11:22N 34°08' E 134°51'1214.4
2015-Jan-16 10:33N 34°12' E 135°04'3 3.1
2015-Jan-16 09:34N 34°13' E 135°08'20 6.0
2015-Jan-16 06:14N 34°06' E 134°45'1113.6
2015-Jan-16 05:28N 34°10' E 134°57'1011.0
2015-Jan-16 04:33N 34°13' E 135°09'7 6.6
2015-Jan-16 03:33N 34°11' E 135°01'4 1.3
2015-Jan-16 00:14N 34°11' E 134°56'1015.0
2015-Jan-15 23:34N 34°13' E 135°08'2 2.0
2015-Jan-15 22:33N 34°13' E 135°05'20 6.2
2015-Jan-15 19:21N 34°05' E 134°43'1213.6
2015-Jan-15 18:26N 34°10' E 134°57'1011.5
2015-Jan-15 17:33N 34°13' E 135°09'0 0.0
2015-Jan-15 16:34N 34°13' E 135°09'0 0.0
2015-Jan-15 15:33N 34°13' E 135°09'7 7.4
2015-Jan-15 14:33N 34°10' E 135°00'  

Dump ship's entire track history